createdAt,value
2023-11-15T00:04:45.769Z,99305.50
2023-11-15T00:14:47.856Z,99257.25
2023-11-15T00:24:49.588Z,99243.31
2023-11-15T00:34:51.686Z,99267.44
2023-11-15T00:44:53.736Z,99278.00
2023-11-15T00:54:56.100Z,99264.75
2023-11-15T01:04:58.764Z,99285.38
2023-11-15T01:15:00.670Z,99254.03
2023-11-15T01:25:02.400Z,99230.06
2023-11-15T01:35:06.752Z,99237.25
2023-11-15T01:45:10.250Z,99126.84
2023-11-15T01:55:17.888Z,99100.69
2023-11-15T02:05:19.898Z,99169.75
2023-11-15T02:15:22.793Z,99233.94
2023-11-15T02:25:24.908Z,99267.09
2023-11-15T02:35:26.790Z,99280.50
2023-11-15T02:45:28.568Z,99355.59
2023-11-15T02:55:30.604Z,99361.41
2023-11-15T03:05:32.545Z,99320.34
2023-11-15T03:15:34.639Z,99343.78
2023-11-15T03:25:37.198Z,99391.75
2023-11-15T03:35:39.222Z,99388.06
2023-11-15T03:45:41.106Z,99350.69
2023-11-15T03:55:45.417Z,99332.75
2023-11-15T04:05:48.846Z,99344.63
2023-11-15T04:15:51.329Z,99376.81
2023-11-15T04:25:53.139Z,99395.72
2023-11-15T04:35:54.925Z,99398.41
2023-11-15T04:45:56.920Z,99429.75
2023-11-15T04:55:59.234Z,99413.81
2023-11-15T05:06:01.239Z,99429.75
2023-11-15T05:16:05.411Z,99442.44
2023-11-15T05:26:10.565Z,99455.72
2023-11-15T05:36:12.335Z,99467.28
2023-11-15T05:46:14.247Z,99471.66
2023-11-15T05:56:17.403Z,99487.56
2023-11-15T06:06:19.334Z,99475.84
2023-11-15T06:16:21.122Z,99489.97
2023-11-15T06:26:23.276Z,99545.28
2023-11-15T06:36:25.362Z,99549.16
2023-11-15T06:46:27.413Z,99567.63
2023-11-15T06:56:30.223Z,99601.34
2023-11-15T07:06:33.646Z,99596.69
2023-11-15T07:16:35.817Z,99577.59
2023-11-15T07:26:38.281Z,99592.31
2023-11-15T07:36:39.996Z,99604.53
2023-11-15T07:46:42.687Z,99631.41
2023-11-15T07:56:46.798Z,99629.72
2023-11-15T08:06:49.783Z,99674.72
2023-11-15T08:16:51.788Z,99676.81
2023-11-15T08:26:57.497Z,99675.97
2023-11-15T08:36:59.592Z,99691.38
2023-11-15T08:47:02.121Z,99697.75
2023-11-15T08:57:04.789Z,99713.00
2023-11-15T09:07:08.818Z,99721.19
2023-11-15T09:17:17.707Z,99739.13
2023-11-15T09:27:19.485Z,99739.97
2023-11-15T09:37:21.480Z,99762.44
2023-11-15T09:47:25.235Z,99751.56
2023-11-15T09:57:27.428Z,99738.97
2023-11-15T10:07:30.417Z,99730.94
2023-11-15T10:17:44.414Z,99730.09
2023-11-15T10:27:47.467Z,99727.25
2023-11-15T10:37:53.168Z,99731.63
2023-11-15T10:47:58.703Z,99720.59
2023-11-15T10:58:03.658Z,99707.03
2023-11-15T11:08:30.291Z,99716.22
2023-11-15T11:18:32.359Z,99708.88
2023-11-15T11:29:04.358Z,99725.97
2023-11-15T11:39:06.775Z,99731.22
2023-11-15T11:49:09.500Z,99743.72
2023-11-15T11:59:14.115Z,99753.41
2023-11-15T12:09:23.618Z,99758.75
2023-11-15T12:19:27.977Z,99755.66
2023-11-15T12:29:31.894Z,99752.16
2023-11-15T12:39:38.243Z,99774.16
2023-11-15T12:49:40.586Z,99772.63
2023-11-15T12:59:43.597Z,99783.06
2023-11-15T13:09:46.688Z,99780.38
2023-11-15T13:19:49.483Z,99786.16
2023-11-15T13:29:52.102Z,99796.66
2023-11-15T13:39:54.173Z,99808.94
2023-11-15T13:49:55.996Z,99825.03
2023-11-15T13:59:59.020Z,99845.81
2023-11-15T14:10:02.403Z,99856.41
2023-11-15T14:20:06.292Z,99854.13
2023-11-15T14:30:11.803Z,99870.22
2023-11-15T14:40:17.501Z,99881.81
2023-11-15T14:50:20.014Z,99902.44
2023-11-15T15:00:22.127Z,99889.16
2023-11-15T15:10:24.025Z,99915.97
2023-11-15T15:20:26.239Z,99926.84
2023-11-15T15:30:34.266Z,99942.38
2023-11-15T15:40:39.834Z,99954.66
2023-11-15T15:50:42.506Z,99963.00
2023-11-15T16:00:44.256Z,99989.97
2023-11-15T16:10:46.707Z,100019.19
2023-11-15T16:20:48.983Z,100030.31
2023-11-15T16:30:51.227Z,100031.16
2023-11-15T16:40:55.772Z,100049.25
2023-11-15T16:50:58.182Z,100049.13
2023-11-15T17:01:00.495Z,100074.25
2023-11-15T17:11:02.255Z,100084.28
2023-11-15T17:21:04.438Z,100077.06
2023-11-15T17:31:06.355Z,100104.75
2023-11-15T17:41:11.809Z,100115.47
2023-11-15T17:51:13.550Z,100127.34
2023-11-15T18:01:15.700Z,100130.88
2023-11-15T18:11:18.341Z,100132.56
2023-11-15T18:21:22.513Z,100158.41
2023-11-15T18:31:25.963Z,100164.06
2023-11-15T18:41:29.152Z,100155.44
2023-11-15T18:51:31.905Z,100172.38
2023-11-15T19:01:35.524Z,100181.41
2023-11-15T19:11:37.736Z,100190.91
2023-11-15T19:21:40.847Z,100193.16
2023-11-15T19:31:45.645Z,100205.03
2023-11-15T19:41:48.612Z,100208.13
2023-11-15T19:51:54.412Z,100238.03
2023-11-15T20:01:56.729Z,100242.13
2023-11-15T20:11:58.801Z,100255.41
2023-11-15T20:22:02.016Z,100258.25
2023-11-15T20:32:04.007Z,100275.44
2023-11-15T20:42:07.450Z,100262.56
2023-11-15T20:52:11.360Z,100277.41
2023-11-15T21:02:16.004Z,100283.06
2023-11-15T21:12:18.829Z,100270.56
2023-11-15T21:22:25.195Z,100290.38
2023-11-15T21:32:28.608Z,100305.88
2023-11-15T21:42:32.003Z,100299.22
2023-11-15T21:52:38.186Z,100338.78
2023-11-15T22:02:39.981Z,100342.31
2023-11-15T22:12:42.984Z,100343.44
2023-11-15T22:22:45.980Z,100353.91
2023-11-15T22:32:47.983Z,100339.66
2023-11-15T22:42:50.356Z,100332.72
2023-11-15T22:52:52.413Z,100331.84
2023-11-15T23:02:54.787Z,100338.22
2023-11-15T23:12:56.729Z,100330.41
2023-11-15T23:22:58.418Z,100331.41
2023-11-15T23:33:00.179Z,100336.75
2023-11-15T23:43:02.285Z,100349.31
2023-11-15T23:53:04.167Z,100362.91
